createdAt,value
2019-04-20T00:01:32.631Z,22.27
2019-04-20T00:04:01.102Z,20.83
2019-04-20T00:06:37.735Z,25.70
2019-04-20T00:09:08.825Z,24.57
2019-04-20T00:11:47.805Z,23.03
2019-04-20T00:14:11.186Z,22.63
2019-04-20T00:16:36.038Z,23.93
2019-04-20T00:19:07.213Z,23.63
2019-04-20T00:21:47.004Z,21.03
2019-04-20T00:24:24.830Z,24.57
2019-04-20T00:29:35.568Z,27.87
2019-04-20T00:32:02.795Z,25.60
2019-04-20T00:34:28.305Z,26.33
2019-04-20T00:36:54.080Z,25.73
2019-04-20T00:39:23.903Z,24.90
2019-04-20T00:41:58.754Z,22.90
2019-04-20T00:44:45.937Z,21.67
2019-04-20T00:47:30.463Z,23.77
2019-04-20T00:49:57.920Z,26.43
2019-04-20T00:52:31.523Z,25.20
2019-04-20T00:54:49.443Z,29.50
2019-04-20T00:57:30.585Z,31.17
2019-04-20T01:00:11.032Z,28.60
2019-04-20T01:02:39.589Z,31.33
2019-04-20T01:05:12.987Z,22.77
2019-04-20T01:07:35.137Z,29.00
2019-04-20T01:10:10.931Z,21.33
2019-04-20T01:12:42.400Z,23.80
2019-04-20T01:15:23.644Z,27.13
2019-04-20T01:17:43.580Z,26.80
2019-04-20T01:20:13.720Z,26.97
2019-04-20T01:22:51.403Z,28.70
2019-04-20T01:25:22.144Z,28.03
2019-04-20T01:28:04.626Z,26.80
2019-04-20T01:30:24.933Z,25.93
2019-04-20T01:33:06.167Z,24.73
2019-04-20T01:35:39.636Z,23.00
2019-04-20T01:38:15.138Z,31.27
2019-04-20T01:40:23.278Z,26.40
2019-04-20T01:42:53.204Z,23.27
2019-04-20T01:45:29.310Z,27.93
2019-04-20T01:47:57.662Z,29.90
2019-04-20T01:50:28.423Z,24.67
2019-04-20T01:53:08.276Z,27.67
2019-04-20T01:56:00.023Z,25.30
2019-04-20T01:58:23.938Z,26.23
2019-04-20T02:00:48.089Z,28.63
2019-04-20T02:03:38.496Z,23.83
2019-04-20T02:06:12.682Z,26.30
2019-04-20T02:08:37.965Z,24.97
2019-04-20T02:11:09.179Z,25.47
2019-04-20T02:13:46.711Z,31.63
2019-04-20T02:16:19.013Z,26.07
2019-04-20T02:18:59.155Z,23.20
2019-04-20T02:21:31.695Z,24.47
2019-04-20T02:23:49.896Z,28.07
2019-04-20T02:26:16.029Z,32.97
2019-04-20T02:29:12.216Z,25.87
2019-04-20T02:32:04.708Z,30.10
2019-04-20T02:34:26.076Z,28.60
2019-04-20T02:41:57.349Z,32.07
2019-04-20T02:44:36.807Z,28.87
2019-04-20T02:47:07.492Z,26.67
2019-04-20T02:52:21.064Z,24.37
2019-04-20T03:01:57.345Z,30.17
2019-04-20T03:04:22.263Z,27.20
2019-04-20T03:06:59.447Z,39.33
2019-04-20T03:09:35.288Z,36.07
2019-04-20T03:14:30.347Z,32.37
2019-04-20T03:17:10.417Z,33.53
2019-04-20T03:19:35.533Z,35.73
2019-04-20T03:22:19.178Z,33.07
2019-04-20T03:24:44.262Z,32.93
2019-04-20T03:27:11.096Z,30.40
2019-04-20T03:29:47.075Z,25.53
2019-04-20T03:32:58.016Z,23.77
2019-04-20T03:37:38.067Z,25.10
2019-04-20T03:39:56.874Z,31.97
2019-04-20T03:42:16.001Z,33.40
2019-04-20T03:44:52.977Z,34.33
2019-04-20T03:47:28.920Z,27.63
2019-04-20T03:50:10.692Z,31.33
2019-04-20T03:52:40.379Z,29.53
2019-04-20T03:55:16.424Z,29.67
2019-04-20T03:57:54.199Z,27.00
2019-04-20T04:00:22.107Z,30.97
2019-04-20T04:03:09.349Z,22.53
2019-04-20T04:05:27.702Z,32.40
2019-04-20T04:07:46.771Z,30.60
2019-04-20T04:10:28.079Z,25.97
2019-04-20T04:13:15.067Z,23.10
2019-04-20T04:15:52.269Z,27.57
2019-04-20T04:18:26.106Z,26.90
2019-04-20T04:20:57.310Z,25.63
2019-04-20T04:23:40.829Z,25.03
2019-04-20T04:26:11.573Z,26.40
2019-04-20T04:28:40.904Z,27.43
2019-04-20T04:31:16.287Z,29.10
2019-04-20T04:36:14.032Z,26.70
2019-04-20T04:38:57.138Z,31.80
2019-04-20T04:41:24.218Z,29.73
2019-04-20T04:43:49.767Z,26.83
2019-04-20T04:46:04.053Z,30.37
2019-04-20T04:48:38.423Z,30.37
2019-04-20T04:51:13.141Z,26.60
2019-04-20T04:53:47.857Z,33.40
2019-04-20T04:56:11.737Z,36.93
2019-04-20T04:58:38.498Z,32.50
2019-04-20T05:01:14.787Z,28.37
2019-04-20T05:04:02.988Z,29.77
2019-04-20T05:06:32.047Z,30.83
2019-04-20T05:08:51.542Z,35.30
2019-04-20T05:11:17.414Z,46.83
2019-04-20T05:13:54.634Z,26.17
2019-04-20T05:16:38.288Z,28.53
2019-04-20T05:19:13.304Z,33.13
2019-04-20T05:21:47.336Z,26.57
2019-04-20T05:24:25.534Z,27.53
2019-04-20T05:27:14.290Z,31.20
2019-04-20T05:29:27.377Z,28.73
2019-04-20T05:32:00.836Z,27.23
2019-04-20T05:34:45.171Z,29.67
2019-04-20T05:37:24.482Z,26.90
2019-04-20T05:39:51.932Z,29.60
2019-04-20T05:42:25.836Z,30.90
2019-04-20T05:44:54.187Z,27.50
2019-04-20T05:47:22.713Z,25.30
2019-04-20T05:49:50.014Z,28.60
2019-04-20T05:54:57.672Z,28.80
2019-04-20T05:57:30.185Z,32.17
2019-04-20T06:00:03.607Z,26.60
2019-04-20T06:02:34.767Z,30.07
2019-04-20T06:05:06.959Z,22.67
2019-04-20T06:07:35.844Z,24.80
2019-04-20T06:10:06.236Z,23.77
2019-04-20T06:12:36.140Z,26.00
2019-04-20T06:15:15.412Z,26.57
2019-04-20T06:18:06.908Z,28.47
2019-04-20T06:20:46.733Z,26.23
2019-04-20T06:23:41.372Z,26.33
2019-04-20T06:26:20.533Z,26.33
2019-04-20T06:28:32.768Z,27.17
2019-04-20T06:31:10.748Z,27.20
2019-04-20T06:39:34.845Z,28.80
2019-04-20T06:49:35.120Z,29.53
2019-04-20T06:52:17.155Z,24.10
2019-04-20T06:54:57.740Z,21.33
2019-04-20T06:57:34.646Z,26.77
2019-04-20T07:00:10.199Z,26.10
2019-04-20T07:02:35.918Z,24.17
2019-04-20T07:05:08.771Z,24.23
2019-04-20T07:07:36.288Z,22.48
2019-04-20T07:10:14.771Z,21.65
2019-04-20T07:12:37.907Z,20.68
2019-04-20T07:15:00.069Z,20.70
2019-04-20T07:17:53.326Z,25.00
2019-04-20T07:20:21.321Z,22.80
2019-04-20T07:23:11.983Z,19.92
2019-04-20T07:25:31.084Z,24.65
2019-04-20T07:28:09.822Z,22.45
2019-04-20T07:30:35.463Z,29.35
2019-04-20T07:33:06.972Z,26.55
2019-04-20T07:35:38.791Z,26.02
2019-04-20T07:40:38.274Z,28.62
2019-04-20T07:43:07.732Z,30.47
2019-04-20T07:45:36.451Z,30.37
2019-04-20T07:48:17.974Z,28.67
2019-04-20T07:50:37.578Z,28.17
2019-04-20T07:53:12.226Z,25.43
2019-04-20T07:55:51.066Z,27.93
2019-04-20T07:58:12.241Z,25.40
2019-04-20T08:01:04.207Z,26.05
2019-04-20T08:03:55.602Z,25.50
2019-04-20T08:06:02.431Z,28.87
2019-04-20T08:08:39.989Z,26.52
2019-04-20T08:11:12.297Z,24.25
2019-04-20T08:16:27.753Z,28.57
2019-04-20T08:18:51.306Z,27.70
2019-04-20T08:21:25.738Z,29.80
2019-04-20T08:23:53.663Z,28.75
2019-04-20T08:26:11.407Z,30.00
2019-04-20T08:28:49.617Z,25.92
2019-04-20T08:31:40.635Z,30.40
2019-04-20T08:34:33.630Z,32.95
2019-04-20T08:36:56.637Z,26.85
2019-04-20T08:39:46.365Z,30.15
2019-04-20T08:42:00.244Z,32.53
2019-04-20T08:47:15.867Z,28.25
2019-04-20T08:50:16.214Z,28.95
2019-04-20T08:53:05.635Z,29.37
2019-04-20T08:55:10.572Z,27.77
2019-04-20T08:57:27.073Z,30.43
2019-04-20T08:59:59.665Z,32.15
2019-04-20T09:02:28.302Z,30.90
2019-04-20T09:05:03.245Z,28.30
2019-04-20T09:07:33.249Z,33.02
2019-04-20T09:10:30.736Z,31.55
2019-04-20T09:12:50.702Z,31.70
2019-04-20T09:15:12.606Z,27.20
2019-04-20T09:17:50.603Z,27.57
2019-04-20T09:20:30.449Z,29.67
2019-04-20T09:23:08.172Z,26.90
2019-04-20T09:28:11.616Z,27.58
2019-04-20T09:30:52.046Z,28.12
2019-04-20T09:33:48.593Z,30.08
2019-04-20T09:36:21.091Z,26.15
2019-04-20T09:39:04.631Z,30.82
2019-04-20T09:41:59.114Z,26.60
2019-04-20T09:44:10.905Z,27.95
2019-04-20T09:46:48.552Z,28.83
2019-04-20T09:49:20.660Z,25.20
2019-04-20T09:51:59.728Z,27.77
2019-04-20T09:54:34.067Z,26.62
2019-04-20T09:57:08.941Z,27.55
2019-04-20T09:59:39.999Z,24.92
2019-04-20T10:01:55.645Z,24.72
2019-04-20T10:04:20.016Z,29.82
2019-04-20T10:06:49.754Z,27.60
2019-04-20T10:09:26.322Z,28.40
2019-04-20T10:11:50.665Z,28.00
2019-04-20T10:14:20.268Z,22.25
2019-04-20T10:16:49.854Z,23.12
2019-04-20T10:19:26.039Z,26.62
2019-04-20T10:21:50.780Z,22.65
2019-04-20T10:24:20.918Z,22.77
2019-04-20T10:26:50.657Z,23.35
2019-04-20T10:29:21.549Z,20.12
2019-04-20T10:31:56.688Z,23.95
2019-04-20T10:34:24.094Z,17.90
2019-04-20T10:36:55.583Z,20.10
2019-04-20T10:39:26.794Z,22.55
2019-04-20T10:42:00.774Z,23.90
2019-04-20T10:44:29.318Z,20.70
2019-04-20T10:46:59.289Z,17.15
2019-04-20T10:49:29.109Z,19.10
2019-04-20T10:51:59.892Z,17.40
2019-04-20T10:54:30.283Z,18.65
2019-04-20T10:57:01.522Z,14.58
2019-04-20T10:59:31.857Z,17.23
2019-04-20T11:02:01.616Z,15.20
2019-04-20T11:04:32.612Z,16.10
2019-04-20T11:07:02.828Z,16.07
2019-04-20T11:09:32.606Z,13.93
2019-04-20T11:12:02.313Z,12.88
2019-04-20T11:14:36.731Z,16.15
2019-04-20T11:17:04.347Z,12.98
2019-04-20T11:19:33.949Z,14.30
2019-04-20T11:22:04.228Z,10.43
2019-04-20T11:24:34.599Z,20.05
2019-04-20T11:27:04.615Z,13.35
2019-04-20T11:29:34.280Z,12.10
2019-04-20T11:32:05.237Z,12.37
2019-04-20T11:34:38.843Z,9.20
2019-04-20T11:37:07.202Z,10.85
2019-04-20T11:39:36.992Z,9.80
2019-04-20T11:42:07.766Z,12.82
2019-04-20T11:44:38.252Z,10.25
2019-04-20T11:47:08.460Z,10.18
2019-04-20T11:49:39.429Z,9.58
2019-04-20T11:52:09.797Z,7.90
2019-04-20T11:54:40.055Z,9.20
2019-04-20T11:57:09.687Z,8.10
2019-04-20T11:59:39.240Z,8.45
2019-04-20T12:02:21.470Z,7.75
2019-04-20T12:05:03.895Z,8.30
2019-04-20T12:07:20.712Z,7.75
2019-04-20T12:09:53.468Z,5.97
2019-04-20T12:12:35.202Z,6.15
2019-04-20T12:14:58.727Z,6.12
2019-04-20T12:17:29.355Z,4.85
2019-04-20T12:19:59.946Z,5.75
2019-04-20T12:22:30.391Z,4.97
2019-04-20T12:25:00.513Z,5.75
2019-04-20T12:27:30.472Z,6.25
2019-04-20T12:30:01.698Z,5.53
2019-04-20T12:32:35.286Z,7.85
2019-04-20T12:35:04.378Z,4.78
2019-04-20T12:37:38.861Z,7.65
2019-04-20T12:40:12.196Z,5.90
2019-04-20T12:42:44.443Z,6.17
2019-04-20T12:45:17.588Z,7.45
2019-04-20T12:47:49.816Z,5.80
2019-04-20T12:50:21.509Z,10.50
2019-04-20T12:53:10.695Z,6.30
2019-04-20T12:55:40.889Z,6.78
2019-04-20T12:58:10.654Z,6.78
2019-04-20T13:00:50.177Z,10.08
2019-04-20T13:03:21.314Z,6.85
2019-04-20T13:05:51.990Z,8.55
2019-04-20T13:08:28.536Z,10.85
2019-04-20T13:10:58.357Z,11.65
2019-04-20T13:13:32.386Z,7.15
2019-04-20T13:16:23.174Z,6.65
2019-04-20T13:18:55.230Z,7.35
2019-04-20T13:21:25.082Z,8.23
2019-04-20T13:23:56.244Z,6.80
2019-04-20T13:26:27.046Z,8.20
2019-04-20T13:28:57.164Z,8.00
2019-04-20T13:31:27.195Z,6.20
2019-04-20T13:33:57.271Z,6.35
2019-04-20T13:36:28.183Z,10.00
2019-04-20T13:38:59.581Z,9.18
2019-04-20T13:41:29.823Z,5.87
2019-04-20T13:44:01.453Z,6.92
2019-04-20T13:46:31.268Z,6.97
2019-04-20T13:49:01.096Z,6.75
2019-04-20T13:51:30.964Z,7.25
2019-04-20T13:54:01.787Z,9.15
2019-04-20T13:56:32.254Z,6.90
2019-04-20T13:59:07.764Z,10.28
2019-04-20T14:01:48.531Z,5.20
2019-04-20T14:04:26.560Z,9.10
2019-04-20T14:06:57.550Z,10.05
2019-04-20T14:09:27.574Z,10.45
2019-04-20T14:12:10.279Z,9.08
2019-04-20T14:14:28.987Z,8.13
2019-04-20T14:16:59.045Z,10.78
2019-04-20T14:19:29.313Z,8.05
2019-04-20T14:22:02.107Z,6.70
2019-04-20T14:24:33.151Z,8.80
2019-04-20T14:27:03.376Z,7.60
2019-04-20T14:29:37.030Z,6.85
2019-04-20T14:32:07.687Z,8.13
2019-04-20T14:34:38.633Z,6.62
2019-04-20T14:37:08.807Z,8.55
2019-04-20T14:39:38.445Z,9.93
2019-04-20T14:42:09.870Z,9.13
2019-04-20T14:44:39.657Z,11.78
2019-04-20T14:47:09.779Z,6.72
2019-04-20T14:49:40.855Z,9.70
2019-04-20T14:52:11.433Z,8.55
2019-04-20T14:54:41.460Z,9.73
2019-04-20T14:57:13.762Z,10.95
2019-04-20T14:59:45.457Z,16.60
2019-04-20T15:02:17.383Z,9.53
2019-04-20T15:04:47.719Z,10.03
2019-04-20T15:07:18.388Z,9.23
2019-04-20T15:09:48.820Z,7.12
2019-04-20T15:12:19.021Z,9.43
2019-04-20T15:14:48.783Z,10.28
2019-04-20T15:17:23.540Z,8.60
2019-04-20T15:20:03.823Z,7.72
2019-04-20T15:22:37.426Z,8.15
2019-04-20T15:25:09.571Z,8.90
2019-04-20T15:27:44.699Z,9.43
2019-04-20T15:30:14.133Z,6.65
2019-04-20T15:32:45.051Z,7.65
2019-04-20T15:35:17.861Z,8.53
2019-04-20T15:37:49.172Z,10.58
2019-04-20T15:40:19.355Z,9.08
2019-04-20T15:42:58.823Z,8.78
2019-04-20T15:45:23.287Z,8.50
2019-04-20T15:47:54.181Z,12.13
2019-04-20T15:50:23.864Z,8.10
2019-04-20T15:52:55.297Z,9.83
2019-04-20T15:55:30.349Z,9.90
2019-04-20T15:57:57.518Z,11.20
2019-04-20T16:00:28.661Z,9.48
2019-04-20T16:03:01.180Z,12.30
2019-04-20T16:05:42.967Z,11.90
2019-04-20T16:08:26.386Z,12.98
2019-04-20T16:10:57.202Z,9.33
2019-04-20T16:13:36.037Z,12.85
2019-04-20T16:15:59.501Z,13.28
2019-04-20T16:18:30.605Z,9.53
2019-04-20T16:21:09.236Z,10.72
2019-04-20T16:23:34.662Z,10.15
2019-04-20T16:26:08.908Z,10.20
2019-04-20T16:28:39.545Z,10.18
2019-04-20T16:31:11.829Z,13.83
2019-04-20T16:33:42.241Z,16.97
2019-04-20T16:36:12.342Z,16.37
2019-04-20T16:38:43.553Z,11.68
2019-04-20T16:41:14.523Z,10.47
2019-04-20T16:43:46.228Z,13.43
2019-04-20T16:46:19.894Z,17.57
2019-04-20T16:48:50.191Z,14.35
2019-04-20T16:51:20.814Z,17.27
2019-04-20T16:53:51.847Z,14.07
2019-04-20T16:56:22.384Z,17.12
2019-04-20T16:58:54.741Z,18.73
2019-04-20T17:01:27.566Z,13.78
2019-04-20T17:04:06.794Z,14.15
2019-04-20T17:06:32.014Z,18.07
2019-04-20T17:09:02.898Z,17.90
2019-04-20T17:11:33.977Z,13.68
2019-04-20T17:14:03.939Z,16.27
2019-04-20T17:16:33.687Z,14.68
2019-04-20T17:19:03.804Z,13.80
2019-04-20T17:21:34.226Z,16.67
2019-04-20T17:24:04.728Z,42.25
2019-04-20T17:26:39.039Z,15.90
2019-04-20T17:29:18.075Z,9.55
2019-04-20T17:32:05.518Z,10.97
2019-04-20T17:34:48.205Z,10.30
2019-04-20T17:37:06.832Z,11.63
2019-04-20T17:39:53.958Z,9.67
2019-04-20T17:42:27.693Z,15.15
2019-04-20T17:44:49.291Z,9.60
2019-04-20T17:47:35.036Z,9.27
2019-04-20T17:50:01.999Z,12.93
2019-04-20T17:52:44.842Z,12.23
2019-04-20T17:54:51.575Z,9.70
2019-04-20T17:57:21.540Z,8.50
2019-04-20T18:00:01.435Z,10.30
2019-04-20T18:02:59.245Z,10.55
2019-04-20T18:05:34.299Z,9.53
2019-04-20T18:08:10.601Z,11.50
2019-04-20T18:10:36.422Z,14.10
2019-04-20T18:12:56.546Z,11.60
2019-04-20T18:15:40.656Z,13.70
2019-04-20T18:18:28.481Z,13.57
2019-04-20T18:20:45.547Z,18.87
2019-04-20T18:23:16.355Z,11.00
2019-04-20T18:26:11.972Z,10.77
2019-04-20T18:28:46.465Z,10.20
2019-04-20T18:31:00.192Z,18.30
2019-04-20T18:33:31.084Z,12.07
2019-04-20T18:36:00.448Z,12.87
2019-04-20T18:38:39.373Z,10.53
2019-04-20T18:41:07.282Z,15.50
2019-04-20T18:43:43.911Z,11.73
2019-04-20T18:46:22.833Z,10.57
2019-04-20T18:48:54.291Z,12.17
2019-04-20T18:51:10.162Z,12.70
2019-04-20T18:53:43.305Z,13.63
2019-04-20T18:56:12.283Z,14.33
2019-04-20T18:58:43.007Z,16.20
2019-04-20T19:01:12.976Z,12.77
2019-04-20T19:03:45.471Z,12.13
2019-04-20T19:06:14.259Z,12.07
2019-04-20T19:08:49.435Z,14.67
2019-04-20T19:11:19.452Z,12.50
2019-04-20T19:14:16.123Z,12.33
2019-04-20T19:16:53.789Z,15.63
2019-04-20T19:19:25.820Z,15.50
2019-04-20T19:21:47.829Z,15.07
2019-04-20T19:24:21.144Z,16.97
2019-04-20T19:26:54.156Z,16.93
2019-04-20T19:29:28.420Z,18.60
2019-04-20T19:32:14.324Z,16.17
2019-04-20T19:34:36.398Z,17.37
2019-04-20T19:37:03.864Z,19.40
2019-04-20T19:39:39.790Z,14.87
2019-04-20T19:42:11.559Z,16.73
2019-04-20T19:44:47.960Z,24.23
2019-04-20T19:47:24.829Z,17.80
2019-04-20T19:49:40.765Z,18.27
2019-04-20T19:52:33.162Z,17.57
2019-04-20T19:54:50.449Z,19.77
2019-04-20T19:57:24.375Z,17.83
2019-04-20T19:59:40.280Z,16.33
2019-04-20T20:02:07.640Z,16.13
2019-04-20T20:04:42.540Z,18.10
2019-04-20T20:07:21.124Z,20.20
2019-04-20T20:09:49.794Z,20.43
2019-04-20T20:12:14.732Z,20.00
2019-04-20T20:14:46.572Z,18.63
2019-04-20T20:17:37.046Z,22.80
2019-04-20T20:20:16.967Z,23.67
2019-04-20T20:22:28.388Z,18.20
2019-04-20T20:24:49.379Z,22.73
2019-04-20T20:27:29.173Z,26.07
2019-04-20T20:29:59.518Z,23.20
2019-04-20T20:32:38.841Z,18.87
2019-04-20T20:35:02.683Z,22.27
2019-04-20T20:37:31.771Z,20.83
2019-04-20T20:40:07.844Z,24.17
2019-04-20T20:42:39.953Z,28.60
2019-04-20T20:45:12.958Z,25.27
2019-04-20T20:47:49.088Z,24.03
2019-04-20T20:50:20.355Z,24.20
2019-04-20T20:52:50.867Z,24.50
2019-04-20T20:55:22.115Z,19.30
2019-04-20T20:57:50.878Z,24.83
2019-04-20T21:00:26.857Z,36.93
2019-04-20T21:02:50.856Z,24.37
2019-04-20T21:05:15.465Z,21.60
2019-04-20T21:07:48.278Z,20.80
2019-04-20T21:10:25.920Z,21.47
2019-04-20T21:12:53.842Z,23.13
2019-04-20T21:15:22.568Z,22.07
2019-04-20T21:18:16.268Z,24.73
2019-04-20T21:20:46.480Z,34.47
2019-04-20T21:23:07.210Z,42.23
2019-04-20T21:25:36.097Z,36.53
2019-04-20T21:28:02.638Z,32.70
2019-04-20T21:30:38.029Z,27.53
2019-04-20T21:33:05.561Z,24.90
2019-04-20T21:35:38.167Z,28.87
2019-04-20T21:38:10.282Z,27.03
2019-04-20T21:40:41.425Z,27.10
2019-04-20T21:43:11.336Z,25.17
2019-04-20T21:45:48.371Z,24.70
2019-04-20T21:48:35.036Z,29.83
2019-04-20T21:51:05.862Z,32.10
2019-04-20T21:53:22.891Z,32.10
2019-04-20T21:55:48.069Z,32.67
2019-04-20T21:58:25.841Z,28.70
2019-04-20T22:01:05.123Z,28.70
2019-04-20T22:03:26.758Z,27.93
2019-04-20T22:06:06.807Z,37.03
2019-04-20T22:08:39.495Z,26.53
2019-04-20T22:11:08.594Z,32.27
2019-04-20T22:13:42.086Z,32.87
2019-04-20T22:16:12.664Z,35.93
2019-04-20T22:18:59.324Z,36.70
2019-04-20T22:21:22.747Z,40.10
2019-04-20T22:23:59.752Z,34.07
2019-04-20T22:26:26.349Z,32.23
2019-04-20T22:28:47.925Z,31.03
2019-04-20T22:31:18.326Z,33.63
2019-04-20T22:33:48.905Z,32.80
2019-04-20T22:36:20.236Z,34.83
2019-04-20T22:39:09.341Z,29.77
2019-04-20T22:41:40.762Z,36.80
2019-04-20T22:44:15.212Z,36.90
2019-04-20T22:46:43.749Z,35.57
2019-04-20T22:49:33.735Z,33.17
2019-04-20T22:51:55.744Z,32.97
2019-04-20T22:54:35.603Z,31.97
2019-04-20T22:56:57.284Z,32.80
2019-04-20T22:59:23.363Z,34.00
2019-04-20T23:01:58.215Z,34.37
2019-04-20T23:04:24.737Z,37.53
2019-04-20T23:06:55.841Z,29.80
2019-04-20T23:09:26.804Z,32.17
2019-04-20T23:12:03.849Z,32.63
2019-04-20T23:14:28.776Z,35.17
2019-04-20T23:16:59.721Z,33.67
2019-04-20T23:19:38.208Z,37.57
2019-04-20T23:22:04.584Z,37.30
2019-04-20T23:24:33.164Z,37.97
2019-04-20T23:27:06.496Z,35.77
2019-04-20T23:29:37.944Z,39.80
2019-04-20T23:32:09.589Z,37.33
2019-04-20T23:34:38.939Z,39.37
2019-04-20T23:37:16.145Z,32.77
2019-04-20T23:39:41.600Z,37.87
2019-04-20T23:42:13.019Z,36.47
2019-04-20T23:44:51.373Z,33.53
2019-04-20T23:47:20.108Z,36.30
2019-04-20T23:50:06.087Z,41.53
2019-04-20T23:52:43.080Z,48.63
2019-04-20T23:54:59.191Z,35.90
2019-04-20T23:57:25.944Z,43.83
2019-04-20T23:59:55.554Z,39.13
